Terminal Aerodrome Forecast
Issued by NWS Raleigh/Durham, NC

Home | Current Version | Previous Version | Text Only | Print | Product List | Glossary On
Versions: 1 2 3 4 5 6 7 8 9 10 11 12 13 14 15 16 17 18 19 20 21 22 23 24 25
000
FTUS42 KRAH 201914 AAA
TAFFAY
TAF AMD
KFAY 201914Z 2019/2118 03005KT P6SM -RA SCT008 OVC060
      TEMPO 2019/2021 BKN005
     FM202200 03005KT P6SM BKN040
     FM210600 02004KT 5SM BR BKN070
     FM211300 04004KT P6SM BKN050=

USA.gov is the U.S. government's official web portal to all federal, state and local government web resources and services.